sensor_id;sensor_type;location;lat;lon;timestamp;temperature;humidity
5786;DHT22;2919;48.630;9.000;2023-12-28T00:01:49;7.10;90.80
5786;DHT22;2919;48.630;9.000;2023-12-28T00:04:16;8.30;91.40
5786;DHT22;2919;48.630;9.000;2023-12-28T00:06:41;8.00;91.10
5786;DHT22;2919;48.630;9.000;2023-12-28T00:09:08;7.60;91.30
5786;DHT22;2919;48.630;9.000;2023-12-28T00:11:33;7.20;90.50
5786;DHT22;2919;48.630;9.000;2023-12-28T00:13:59;7.50;90.70
5786;DHT22;2919;48.630;9.000;2023-12-28T00:16:25;7.70;90.80
5786;DHT22;2919;48.630;9.000;2023-12-28T00:18:50;7.80;91.00
5786;DHT22;2919;48.630;9.000;2023-12-28T00:21:16;7.20;90.60
5786;DHT22;2919;48.630;9.000;2023-12-28T00:23:41;7.90;91.10
5786;DHT22;2919;48.630;9.000;2023-12-28T00:26:07;7.10;90.80
5786;DHT22;2919;48.630;9.000;2023-12-28T00:28:32;7.10;90.90
5786;DHT22;2919;48.630;9.000;2023-12-28T00:30:58;7.70;91.20
5786;DHT22;2919;48.630;9.000;2023-12-28T00:33:23;7.50;91.50
5786;DHT22;2919;48.630;9.000;2023-12-28T00:35:49;7.10;92.10
5786;DHT22;2919;48.630;9.000;2023-12-28T00:38:14;7.30;92.70
5786;DHT22;2919;48.630;9.000;2023-12-28T00:40:40;6.60;92.40
5786;DHT22;2919;48.630;9.000;2023-12-28T00:43:05;6.50;92.90
5786;DHT22;2919;48.630;9.000;2023-12-28T00:45:31;7.10;92.90
5786;DHT22;2919;48.630;9.000;2023-12-28T00:47:56;7.60;93.10
5786;DHT22;2919;48.630;9.000;2023-12-28T00:50:22;7.60;93.20
5786;DHT22;2919;48.630;9.000;2023-12-28T00:52:47;7.50;93.40
5786;DHT22;2919;48.630;9.000;2023-12-28T00:55:13;6.20;93.10
5786;DHT22;2919;48.630;9.000;2023-12-28T00:57:38;6.20;92.70
5786;DHT22;2919;48.630;9.000;2023-12-28T01:00:04;7.30;93.50
5786;DHT22;2919;48.630;9.000;2023-12-28T01:02:30;6.40;92.70
5786;DHT22;2919;48.630;9.000;2023-12-28T01:04:56;7.30;93.40
5786;DHT22;2919;48.630;9.000;2023-12-28T01:07:21;7.40;93.50
5786;DHT22;2919;48.630;9.000;2023-12-28T01:09:47;7.40;93.20
5786;DHT22;2919;48.630;9.000;2023-12-28T01:12:12;7.30;93.00
5786;DHT22;2919;48.630;9.000;2023-12-28T01:14:38;7.40;93.10
5786;DHT22;2919;48.630;9.000;2023-12-28T01:17:03;6.70;92.60
5786;DHT22;2919;48.630;9.000;2023-12-28T01:19:29;6.70;92.50
5786;DHT22;2919;48.630;9.000;2023-12-28T01:21:54;6.50;93.30
5786;DHT22;2919;48.630;9.000;2023-12-28T01:24:20;6.40;93.10
5786;DHT22;2919;48.630;9.000;2023-12-28T01:26:45;7.10;93.40
5786;DHT22;2919;48.630;9.000;2023-12-28T01:29:11;6.30;93.50
5786;DHT22;2919;48.630;9.000;2023-12-28T01:31:36;6.40;93.10
5786;DHT22;2919;48.630;9.000;2023-12-28T01:34:04;6.70;93.20
5786;DHT22;2919;48.630;9.000;2023-12-28T01:36:29;7.30;93.30
5786;DHT22;2919;48.630;9.000;2023-12-28T01:38:55;7.10;93.40
5786;DHT22;2919;48.630;9.000;2023-12-28T01:41:21;7.30;93.30
5786;DHT22;2919;48.630;9.000;2023-12-28T01:43:47;7.50;93.10
5786;DHT22;2919;48.630;9.000;2023-12-28T01:46:18;6.70;92.90
5786;DHT22;2919;48.630;9.000;2023-12-28T01:48:46;6.90;92.20
5786;DHT22;2919;48.630;9.000;2023-12-28T01:51:14;7.40;92.60
5786;DHT22;2919;48.630;9.000;2023-12-28T01:53:41;8.30;92.80
5786;DHT22;2919;48.630;9.000;2023-12-28T01:56:07;7.70;92.70
5786;DHT22;2919;48.630;9.000;2023-12-28T01:58:33;8.40;92.90
5786;DHT22;2919;48.630;9.000;2023-12-28T02:01:00;7.60;92.70
5786;DHT22;2919;48.630;9.000;2023-12-28T02:03:26;7.80;92.80
5786;DHT22;2919;48.630;9.000;2023-12-28T02:05:52;6.90;92.50
5786;DHT22;2919;48.630;9.000;2023-12-28T02:08:17;6.80;92.40
5786;DHT22;2919;48.630;9.000;2023-12-28T02:10:43;7.60;92.60
5786;DHT22;2919;48.630;9.000;2023-12-28T02:13:09;7.70;92.70
5786;DHT22;2919;48.630;9.000;2023-12-28T02:15:35;8.00;93.20
5786;DHT22;2919;48.630;9.000;2023-12-28T02:18:18;6.80;92.60
5786;DHT22;2919;48.630;9.000;2023-12-28T02:20:45;7.90;92.70
5786;DHT22;2919;48.630;9.000;2023-12-28T02:23:12;8.40;93.00
5786;DHT22;2919;48.630;9.000;2023-12-28T02:25:37;6.90;92.20
5786;DHT22;2919;48.630;9.000;2023-12-28T02:28:03;8.20;92.90
5786;DHT22;2919;48.630;9.000;2023-12-28T02:30:29;6.90;92.50
5786;DHT22;2919;48.630;9.000;2023-12-28T02:33:22;6.90;92.10
5786;DHT22;2919;48.630;9.000;2023-12-28T02:35:57;6.80;92.50
5786;DHT22;2919;48.630;9.000;2023-12-28T02:38:24;7.40;92.80
5786;DHT22;2919;48.630;9.000;2023-12-28T02:40:50;7.80;93.00
5786;DHT22;2919;48.630;9.000;2023-12-28T02:43:16;6.80;92.30
5786;DHT22;2919;48.630;9.000;2023-12-28T02:45:42;8.40;93.00
5786;DHT22;2919;48.630;9.000;2023-12-28T02:48:07;8.40;92.90
5786;DHT22;2919;48.630;9.000;2023-12-28T02:50:34;8.30;92.80
5786;DHT22;2919;48.630;9.000;2023-12-28T02:53:00;6.80;92.70
5786;DHT22;2919;48.630;9.000;2023-12-28T02:55:25;8.50;93.30
5786;DHT22;2919;48.630;9.000;2023-12-28T02:57:53;6.80;92.60
5786;DHT22;2919;48.630;9.000;2023-12-28T03:00:20;6.90;92.10
5786;DHT22;2919;48.630;9.000;2023-12-28T03:02:46;7.00;92.10
5786;DHT22;2919;48.630;9.000;2023-12-28T03:05:11;7.10;91.90
5786;DHT22;2919;48.630;9.000;2023-12-28T03:07:37;7.30;91.30
5786;DHT22;2919;48.630;9.000;2023-12-28T03:10:03;7.40;91.50
5786;DHT22;2919;48.630;9.000;2023-12-28T03:12:30;7.40;91.60
5786;DHT22;2919;48.630;9.000;2023-12-28T03:14:55;7.90;91.60
5786;DHT22;2919;48.630;9.000;2023-12-28T03:17:21;8.40;91.90
5786;DHT22;2919;48.630;9.000;2023-12-28T03:19:47;8.40;92.00
5786;DHT22;2919;48.630;9.000;2023-12-28T03:22:12;8.50;91.80
5786;DHT22;2919;48.630;9.000;2023-12-28T03:24:38;8.80;92.00
5786;DHT22;2919;48.630;9.000;2023-12-28T03:27:04;7.50;91.40
5786;DHT22;2919;48.630;9.000;2023-12-28T03:29:30;7.50;91.10
5786;DHT22;2919;48.630;9.000;2023-12-28T03:31:56;8.70;91.60
5786;DHT22;2919;48.630;9.000;2023-12-28T03:34:21;8.00;91.50
5786;DHT22;2919;48.630;9.000;2023-12-28T03:36:50;7.90;91.20
5786;DHT22;2919;48.630;9.000;2023-12-28T03:39:16;7.80;90.70
5786;DHT22;2919;48.630;9.000;2023-12-28T03:41:41;9.50;91.60
5786;DHT22;2919;48.630;9.000;2023-12-28T03:44:07;8.60;91.30
5786;DHT22;2919;48.630;9.000;2023-12-28T03:46:32;8.40;91.50
5786;DHT22;2919;48.630;9.000;2023-12-28T03:48:58;9.00;91.50
5786;DHT22;2919;48.630;9.000;2023-12-28T03:51:23;9.30;92.00
5786;DHT22;2919;48.630;9.000;2023-12-28T03:53:49;7.70;91.10
5786;DHT22;2919;48.630;9.000;2023-12-28T03:56:25;9.20;91.90
5786;DHT22;2919;48.630;9.000;2023-12-28T03:58:51;9.00;92.00
5786;DHT22;2919;48.630;9.000;2023-12-28T04:01:18;8.30;91.40
5786;DHT22;2919;48.630;9.000;2023-12-28T04:03:44;8.10;91.10
5786;DHT22;2919;48.630;9.000;2023-12-28T04:06:09;7.80;91.00
5786;DHT22;2919;48.630;9.000;2023-12-28T04:08:35;7.70;91.30
5786;DHT22;2919;48.630;9.000;2023-12-28T04:11:00;9.20;92.00
5786;DHT22;2919;48.630;9.000;2023-12-28T04:13:26;8.80;91.90
5786;DHT22;2919;48.630;9.000;2023-12-28T04:15:51;8.80;91.60
5786;DHT22;2919;48.630;9.000;2023-12-28T04:18:17;8.90;91.60
5786;DHT22;2919;48.630;9.000;2023-12-28T04:20:43;7.80;91.10
5786;DHT22;2919;48.630;9.000;2023-12-28T04:23:10;9.60;91.90
5786;DHT22;2919;48.630;9.000;2023-12-28T04:25:35;9.00;91.70
5786;DHT22;2919;48.630;9.000;2023-12-28T04:28:01;7.80;91.50
5786;DHT22;2919;48.630;9.000;2023-12-28T04:30:26;8.60;91.70
5786;DHT22;2919;48.630;9.000;2023-12-28T04:32:52;9.70;92.30
5786;DHT22;2919;48.630;9.000;2023-12-28T04:35:18;9.00;92.10
5786;DHT22;2919;48.630;9.000;2023-12-28T04:37:43;7.90;91.30
5786;DHT22;2919;48.630;9.000;2023-12-28T04:40:09;7.90;91.30
5786;DHT22;2919;48.630;9.000;2023-12-28T04:42:35;7.90;91.40
5786;DHT22;2919;48.630;9.000;2023-12-28T04:45:00;8.20;91.80
5786;DHT22;2919;48.630;9.000;2023-12-28T04:47:26;8.80;91.90
5786;DHT22;2919;48.630;9.000;2023-12-28T04:49:51;8.40;91.90
5786;DHT22;2919;48.630;9.000;2023-12-28T04:52:16;8.60;91.90
5786;DHT22;2919;48.630;9.000;2023-12-28T04:54:42;8.70;91.80
5786;DHT22;2919;48.630;9.000;2023-12-28T04:57:07;8.10;91.20
5786;DHT22;2919;48.630;9.000;2023-12-28T04:59:40;8.10;90.80
5786;DHT22;2919;48.630;9.000;2023-12-28T05:02:06;8.20;90.80
5786;DHT22;2919;48.630;9.000;2023-12-28T05:04:32;8.20;90.90
5786;DHT22;2919;48.630;9.000;2023-12-28T05:06:58;9.00;91.70
5786;DHT22;2919;48.630;9.000;2023-12-28T05:09:23;9.00;91.90
5786;DHT22;2919;48.630;9.000;2023-12-28T05:11:49;9.10;92.10
5786;DHT22;2919;48.630;9.000;2023-12-28T05:14:14;9.00;92.50
5786;DHT22;2919;48.630;9.000;2023-12-28T05:16:40;9.00;92.30
5786;DHT22;2919;48.630;9.000;2023-12-28T05:19:05;8.00;92.20
5786;DHT22;2919;48.630;9.000;2023-12-28T05:21:31;8.70;92.70
5786;DHT22;2919;48.630;9.000;2023-12-28T05:23:56;8.50;92.70
5786;DHT22;2919;48.630;9.000;2023-12-28T05:26:22;8.50;93.00
5786;DHT22;2919;48.630;9.000;2023-12-28T05:28:48;9.10;93.40
5786;DHT22;2919;48.630;9.000;2023-12-28T05:31:14;8.80;93.00
5786;DHT22;2919;48.630;9.000;2023-12-28T05:33:39;8.60;93.10
5786;DHT22;2919;48.630;9.000;2023-12-28T05:36:05;8.60;92.80
5786;DHT22;2919;48.630;9.000;2023-12-28T05:38:31;8.30;92.50
5786;DHT22;2919;48.630;9.000;2023-12-28T05:40:57;8.90;92.50
5786;DHT22;2919;48.630;9.000;2023-12-28T05:43:22;8.90;92.50
5786;DHT22;2919;48.630;9.000;2023-12-28T05:45:48;8.40;92.40
5786;DHT22;2919;48.630;9.000;2023-12-28T05:48:13;9.10;92.70
5786;DHT22;2919;48.630;9.000;2023-12-28T05:50:39;8.40;92.50
5786;DHT22;2919;48.630;9.000;2023-12-28T05:53:05;8.40;92.60
5786;DHT22;2919;48.630;9.000;2023-12-28T05:55:30;9.50;93.40
5786;DHT22;2919;48.630;9.000;2023-12-28T05:57:56;8.40;93.20
5786;DHT22;2919;48.630;9.000;2023-12-28T06:00:21;8.30;93.40
5786;DHT22;2919;48.630;9.000;2023-12-28T06:02:47;9.00;93.80
5786;DHT22;2919;48.630;9.000;2023-12-28T06:05:17;8.70;93.90
5786;DHT22;2919;48.630;9.000;2023-12-28T06:07:42;8.30;94.00
5786;DHT22;2919;48.630;9.000;2023-12-28T06:10:08;8.90;94.40
5786;DHT22;2919;48.630;9.000;2023-12-28T06:12:34;8.40;94.60
5786;DHT22;2919;48.630;9.000;2023-12-28T06:14:59;8.30;94.50
5786;DHT22;2919;48.630;9.000;2023-12-28T06:17:25;8.30;94.70
5786;DHT22;2919;48.630;9.000;2023-12-28T06:19:50;8.20;94.90
5786;DHT22;2919;48.630;9.000;2023-12-28T06:22:16;8.30;95.00
5786;DHT22;2919;48.630;9.000;2023-12-28T06:24:41;8.30;95.60
5786;DHT22;2919;48.630;9.000;2023-12-28T06:27:07;8.00;95.70
5786;DHT22;2919;48.630;9.000;2023-12-28T06:29:32;8.00;95.80
5786;DHT22;2919;48.630;9.000;2023-12-28T06:31:58;8.10;96.20
5786;DHT22;2919;48.630;9.000;2023-12-28T06:34:23;8.10;96.60
5786;DHT22;2919;48.630;9.000;2023-12-28T06:36:49;8.00;96.80
5786;DHT22;2919;48.630;9.000;2023-12-28T06:39:14;7.90;97.00
5786;DHT22;2919;48.630;9.000;2023-12-28T06:41:40;7.80;97.30
5786;DHT22;2919;48.630;9.000;2023-12-28T06:44:05;7.80;97.50
5786;DHT22;2919;48.630;9.000;2023-12-28T06:46:31;7.80;97.70
5786;DHT22;2919;48.630;9.000;2023-12-28T06:48:56;7.70;97.90
5786;DHT22;2919;48.630;9.000;2023-12-28T06:51:24;7.70;98.00
5786;DHT22;2919;48.630;9.000;2023-12-28T06:53:50;7.70;98.00
5786;DHT22;2919;48.630;9.000;2023-12-28T06:56:16;7.80;97.90
5786;DHT22;2919;48.630;9.000;2023-12-28T06:58:42;7.90;97.80
5786;DHT22;2919;48.630;9.000;2023-12-28T07:01:07;7.90;97.80
5786;DHT22;2919;48.630;9.000;2023-12-28T07:03:34;8.20;97.80
5786;DHT22;2919;48.630;9.000;2023-12-28T07:06:00;8.20;97.60
5786;DHT22;2919;48.630;9.000;2023-12-28T07:08:25;8.30;97.50
5786;DHT22;2919;48.630;9.000;2023-12-28T07:10:51;8.30;97.20
5786;DHT22;2919;48.630;9.000;2023-12-28T07:13:16;8.40;97.20
5786;DHT22;2919;48.630;9.000;2023-12-28T07:15:42;8.40;97.20
5786;DHT22;2919;48.630;9.000;2023-12-28T07:18:07;8.50;97.30
5786;DHT22;2919;48.630;9.000;2023-12-28T07:20:33;8.50;97.30
5786;DHT22;2919;48.630;9.000;2023-12-28T07:22:58;8.80;97.00
5786;DHT22;2919;48.630;9.000;2023-12-28T07:25:23;8.80;96.80
5786;DHT22;2919;48.630;9.000;2023-12-28T07:27:49;9.20;96.60
5786;DHT22;2919;48.630;9.000;2023-12-28T07:30:15;9.10;96.60
5786;DHT22;2919;48.630;9.000;2023-12-28T07:32:42;9.10;96.70
5786;DHT22;2919;48.630;9.000;2023-12-28T07:35:07;9.00;96.80
5786;DHT22;2919;48.630;9.000;2023-12-28T07:37:33;9.00;96.70
5786;DHT22;2919;48.630;9.000;2023-12-28T07:40:00;9.10;96.70
5786;DHT22;2919;48.630;9.000;2023-12-28T07:42:25;9.10;96.80
5786;DHT22;2919;48.630;9.000;2023-12-28T07:44:51;9.10;96.60
5786;DHT22;2919;48.630;9.000;2023-12-28T07:47:16;9.20;97.00
5786;DHT22;2919;48.630;9.000;2023-12-28T07:49:42;9.20;96.90
5786;DHT22;2919;48.630;9.000;2023-12-28T07:52:08;9.40;96.70
5786;DHT22;2919;48.630;9.000;2023-12-28T07:54:33;9.30;96.60
5786;DHT22;2919;48.630;9.000;2023-12-28T07:56:59;9.30;96.80
5786;DHT22;2919;48.630;9.000;2023-12-28T07:59:25;9.30;96.60
5786;DHT22;2919;48.630;9.000;2023-12-28T08:01:50;9.30;96.60
5786;DHT22;2919;48.630;9.000;2023-12-28T08:04:16;9.20;96.60
5786;DHT22;2919;48.630;9.000;2023-12-28T08:06:41;9.20;96.80
5786;DHT22;2919;48.630;9.000;2023-12-28T08:09:07;9.20;96.70
5786;DHT22;2919;48.630;9.000;2023-12-28T08:11:32;9.20;96.60
5786;DHT22;2919;48.630;9.000;2023-12-28T08:13:57;9.20;96.40
5786;DHT22;2919;48.630;9.000;2023-12-28T08:16:23;9.30;96.20
5786;DHT22;2919;48.630;9.000;2023-12-28T08:18:48;9.40;96.10
5786;DHT22;2919;48.630;9.000;2023-12-28T08:21:14;9.40;96.20
5786;DHT22;2919;48.630;9.000;2023-12-28T08:23:40;9.30;95.90
5786;DHT22;2919;48.630;9.000;2023-12-28T08:26:05;9.50;95.90
5786;DHT22;2919;48.630;9.000;2023-12-28T08:28:32;9.40;96.00
5786;DHT22;2919;48.630;9.000;2023-12-28T08:30:58;9.50;95.80
5786;DHT22;2919;48.630;9.000;2023-12-28T08:33:23;9.60;95.80
5786;DHT22;2919;48.630;9.000;2023-12-28T08:35:49;9.50;95.90
5786;DHT22;2919;48.630;9.000;2023-12-28T08:38:14;9.50;96.10
5786;DHT22;2919;48.630;9.000;2023-12-28T08:40:40;9.60;96.30
5786;DHT22;2919;48.630;9.000;2023-12-28T08:43:05;9.40;96.30
5786;DHT22;2919;48.630;9.000;2023-12-28T08:45:30;9.40;96.40
5786;DHT22;2919;48.630;9.000;2023-12-28T08:47:56;9.30;96.70
5786;DHT22;2919;48.630;9.000;2023-12-28T08:50:22;9.30;97.10
5786;DHT22;2919;48.630;9.000;2023-12-28T08:52:47;9.20;97.70
5786;DHT22;2919;48.630;9.000;2023-12-28T08:55:13;9.10;98.10
5786;DHT22;2919;48.630;9.000;2023-12-28T08:57:39;9.10;97.90
5786;DHT22;2919;48.630;9.000;2023-12-28T09:00:06;9.30;97.70
5786;DHT22;2919;48.630;9.000;2023-12-28T09:02:31;9.30;97.80
5786;DHT22;2919;48.630;9.000;2023-12-28T09:04:58;9.30;97.90
5786;DHT22;2919;48.630;9.000;2023-12-28T09:07:24;9.40;97.60
5786;DHT22;2919;48.630;9.000;2023-12-28T09:09:49;9.40;97.50
5786;DHT22;2919;48.630;9.000;2023-12-28T09:12:15;9.40;97.70
5786;DHT22;2919;48.630;9.000;2023-12-28T09:14:40;9.40;97.80
5786;DHT22;2919;48.630;9.000;2023-12-28T09:17:06;9.40;97.50
5786;DHT22;2919;48.630;9.000;2023-12-28T09:19:32;9.40;97.60
5786;DHT22;2919;48.630;9.000;2023-12-28T09:21:57;9.50;97.40
5786;DHT22;2919;48.630;9.000;2023-12-28T09:24:23;9.40;97.20
5786;DHT22;2919;48.630;9.000;2023-12-28T09:26:48;9.50;97.50
5786;DHT22;2919;48.630;9.000;2023-12-28T09:29:14;9.40;97.40
5786;DHT22;2919;48.630;9.000;2023-12-28T09:31:39;9.40;97.80
5786;DHT22;2919;48.630;9.000;2023-12-28T09:34:05;9.40;97.60
5786;DHT22;2919;48.630;9.000;2023-12-28T09:36:31;9.40;97.50
5786;DHT22;2919;48.630;9.000;2023-12-28T09:38:57;9.50;97.10
5786;DHT22;2919;48.630;9.000;2023-12-28T09:41:26;9.50;97.20
5786;DHT22;2919;48.630;9.000;2023-12-28T09:44:08;9.50;97.00
5786;DHT22;2919;48.630;9.000;2023-12-28T09:46:36;9.60;97.10
5786;DHT22;2919;48.630;9.000;2023-12-28T09:49:04;9.60;96.80
5786;DHT22;2919;48.630;9.000;2023-12-28T09:51:29;9.60;96.40
5786;DHT22;2919;48.630;9.000;2023-12-28T09:53:56;9.70;96.60
5786;DHT22;2919;48.630;9.000;2023-12-28T09:56:23;9.80;96.70
5786;DHT22;2919;48.630;9.000;2023-12-28T09:58:50;9.90;96.20
5786;DHT22;2919;48.630;9.000;2023-12-28T10:01:17;9.80;96.20
5786;DHT22;2919;48.630;9.000;2023-12-28T10:03:43;9.90;96.30
5786;DHT22;2919;48.630;9.000;2023-12-28T10:06:08;9.90;96.80
5786;DHT22;2919;48.630;9.000;2023-12-28T10:08:34;9.80;96.70
5786;DHT22;2919;48.630;9.000;2023-12-28T10:11:02;9.80;96.50
5786;DHT22;2919;48.630;9.000;2023-12-28T10:13:27;10.00;96.10
5786;DHT22;2919;48.630;9.000;2023-12-28T10:15:56;9.90;97.40
5786;DHT22;2919;48.630;9.000;2023-12-28T10:18:23;10.00;96.70
5786;DHT22;2919;48.630;9.000;2023-12-28T10:20:53;10.00;96.90
5786;DHT22;2919;48.630;9.000;2023-12-28T10:23:19;10.00;97.00
5786;DHT22;2919;48.630;9.000;2023-12-28T10:25:46;10.00;97.10
5786;DHT22;2919;48.630;9.000;2023-12-28T10:28:12;9.90;97.90
5786;DHT22;2919;48.630;9.000;2023-12-28T10:30:38;10.00;97.40
5786;DHT22;2919;48.630;9.000;2023-12-28T10:33:05;9.90;98.00
5786;DHT22;2919;48.630;9.000;2023-12-28T10:35:31;10.00;97.70
5786;DHT22;2919;48.630;9.000;2023-12-28T10:38:02;9.90;98.70
5786;DHT22;2919;48.630;9.000;2023-12-28T10:40:28;9.90;98.80
5786;DHT22;2919;48.630;9.000;2023-12-28T10:43:01;9.90;99.60
5786;DHT22;2919;48.630;9.000;2023-12-28T10:45:31;9.90;99.70
5786;DHT22;2919;48.630;9.000;2023-12-28T10:48:07;10.00;99.40
5786;DHT22;2919;48.630;9.000;2023-12-28T10:51:03;10.00;99.70
5786;DHT22;2919;48.630;9.000;2023-12-28T10:53:49;10.00;99.60
5786;DHT22;2919;48.630;9.000;2023-12-28T10:59:24;10.10;99.70
5786;DHT22;2919;48.630;9.000;2023-12-28T11:01:55;10.10;99.90
5786;DHT22;2919;48.630;9.000;2023-12-28T11:04:40;10.10;99.90
5786;DHT22;2919;48.630;9.000;2023-12-28T11:07:09;9.90;99.90
5786;DHT22;2919;48.630;9.000;2023-12-28T11:09:35;10.00;99.90
5786;DHT22;2919;48.630;9.000;2023-12-28T11:12:04;10.10;99.90
5786;DHT22;2919;48.630;9.000;2023-12-28T11:14:32;10.10;99.90
5786;DHT22;2919;48.630;9.000;2023-12-28T11:16:59;10.10;99.90
5786;DHT22;2919;48.630;9.000;2023-12-28T11:19:26;10.10;99.90
5786;DHT22;2919;48.630;9.000;2023-12-28T11:21:53;10.20;99.90
5786;DHT22;2919;48.630;9.000;2023-12-28T11:24:19;10.10;99.90
5786;DHT22;2919;48.630;9.000;2023-12-28T11:26:45;10.00;99.90
5786;DHT22;2919;48.630;9.000;2023-12-28T11:29:18;10.20;99.90
5786;DHT22;2919;48.630;9.000;2023-12-28T11:31:53;10.20;99.90
5786;DHT22;2919;48.630;9.000;2023-12-28T11:34:28;10.10;99.90
5786;DHT22;2919;48.630;9.000;2023-12-28T11:36:55;10.20;99.90
5786;DHT22;2919;48.630;9.000;2023-12-28T11:39:32;10.20;99.90
5786;DHT22;2919;48.630;9.000;2023-12-28T11:42:04;10.20;99.90
5786;DHT22;2919;48.630;9.000;2023-12-28T11:44:41;10.20;99.90
5786;DHT22;2919;48.630;9.000;2023-12-28T11:47:14;10.10;99.90
5786;DHT22;2919;48.630;9.000;2023-12-28T11:49:40;10.20;99.90
5786;DHT22;2919;48.630;9.000;2023-12-28T11:52:07;10.20;99.90
5786;DHT22;2919;48.630;9.000;2023-12-28T11:54:33;10.10;99.90
5786;DHT22;2919;48.630;9.000;2023-12-28T11:56:58;10.10;99.90
5786;DHT22;2919;48.630;9.000;2023-12-28T11:59:24;10.00;99.90
5786;DHT22;2919;48.630;9.000;2023-12-28T12:01:50;10.10;99.90
5786;DHT22;2919;48.630;9.000;2023-12-28T12:04:17;9.90;99.90
5786;DHT22;2919;48.630;9.000;2023-12-28T12:06:42;10.10;99.90
5786;DHT22;2919;48.630;9.000;2023-12-28T12:09:08;10.10;99.90
5786;DHT22;2919;48.630;9.000;2023-12-28T12:11:36;10.10;99.90
5786;DHT22;2919;48.630;9.000;2023-12-28T12:14:03;9.90;99.90
5786;DHT22;2919;48.630;9.000;2023-12-28T12:16:31;9.90;99.90
5786;DHT22;2919;48.630;9.000;2023-12-28T12:18:57;10.00;99.90
5786;DHT22;2919;48.630;9.000;2023-12-28T12:21:23;10.00;99.90
5786;DHT22;2919;48.630;9.000;2023-12-28T12:23:49;10.10;99.90
5786;DHT22;2919;48.630;9.000;2023-12-28T12:26:18;10.10;99.90
5786;DHT22;2919;48.630;9.000;2023-12-28T12:28:44;10.10;99.90
5786;DHT22;2919;48.630;9.000;2023-12-28T12:31:10;10.10;99.90
5786;DHT22;2919;48.630;9.000;2023-12-28T12:33:36;10.10;99.90
5786;DHT22;2919;48.630;9.000;2023-12-28T12:36:03;9.90;99.90
5786;DHT22;2919;48.630;9.000;2023-12-28T12:38:31;9.90;99.90
5786;DHT22;2919;48.630;9.000;2023-12-28T12:40:58;9.90;99.90
5786;DHT22;2919;48.630;9.000;2023-12-28T12:43:23;9.90;99.90
5786;DHT22;2919;48.630;9.000;2023-12-28T12:45:49;9.90;99.90
5786;DHT22;2919;48.630;9.000;2023-12-28T12:48:14;10.00;99.90
5786;DHT22;2919;48.630;9.000;2023-12-28T12:50:40;10.00;99.90
5786;DHT22;2919;48.630;9.000;2023-12-28T12:53:05;10.00;99.90
5786;DHT22;2919;48.630;9.000;2023-12-28T12:55:31;9.90;99.90
5786;DHT22;2919;48.630;9.000;2023-12-28T12:57:57;9.90;99.90
5786;DHT22;2919;48.630;9.000;2023-12-28T13:00:23;9.90;99.90
5786;DHT22;2919;48.630;9.000;2023-12-28T13:02:50;9.70;99.90
5786;DHT22;2919;48.630;9.000;2023-12-28T13:05:20;9.70;99.90
5786;DHT22;2919;48.630;9.000;2023-12-28T13:07:46;9.70;99.90
5786;DHT22;2919;48.630;9.000;2023-12-28T13:10:11;9.60;99.90
5786;DHT22;2919;48.630;9.000;2023-12-28T13:12:37;9.60;99.90
5786;DHT22;2919;48.630;9.000;2023-12-28T13:15:03;9.50;99.90
5786;DHT22;2919;48.630;9.000;2023-12-28T13:17:29;9.60;99.90
5786;DHT22;2919;48.630;9.000;2023-12-28T13:19:54;9.50;99.90
5786;DHT22;2919;48.630;9.000;2023-12-28T13:22:20;9.50;99.90
5786;DHT22;2919;48.630;9.000;2023-12-28T13:24:45;9.50;99.90
5786;DHT22;2919;48.630;9.000;2023-12-28T13:27:10;9.50;99.90
5786;DHT22;2919;48.630;9.000;2023-12-28T13:29:36;9.40;99.90
5786;DHT22;2919;48.630;9.000;2023-12-28T13:32:02;9.40;99.90
5786;DHT22;2919;48.630;9.000;2023-12-28T13:34:29;9.30;99.90
5786;DHT22;2919;48.630;9.000;2023-12-28T13:36:54;9.30;99.90
5786;DHT22;2919;48.630;9.000;2023-12-28T13:39:20;9.20;99.90
5786;DHT22;2919;48.630;9.000;2023-12-28T13:41:45;9.20;99.90
5786;DHT22;2919;48.630;9.000;2023-12-28T13:44:11;9.20;99.90
5786;DHT22;2919;48.630;9.000;2023-12-28T13:46:38;9.20;99.90
5786;DHT22;2919;48.630;9.000;2023-12-28T13:49:04;9.00;99.90
5786;DHT22;2919;48.630;9.000;2023-12-28T13:51:30;9.10;99.90
5786;DHT22;2919;48.630;9.000;2023-12-28T13:53:56;9.00;99.90
5786;DHT22;2919;48.630;9.000;2023-12-28T13:56:21;9.00;99.90
5786;DHT22;2919;48.630;9.000;2023-12-28T13:58:47;9.10;99.90
5786;DHT22;2919;48.630;9.000;2023-12-28T14:01:12;9.00;99.90
5786;DHT22;2919;48.630;9.000;2023-12-28T14:03:38;9.00;99.90
5786;DHT22;2919;48.630;9.000;2023-12-28T14:06:04;8.90;99.90
5786;DHT22;2919;48.630;9.000;2023-12-28T14:08:30;8.90;99.90
5786;DHT22;2919;48.630;9.000;2023-12-28T14:10:55;9.10;99.90
5786;DHT22;2919;48.630;9.000;2023-12-28T14:13:21;9.00;99.90
5786;DHT22;2919;48.630;9.000;2023-12-28T14:15:47;9.00;99.90
5786;DHT22;2919;48.630;9.000;2023-12-28T14:18:13;9.00;99.90
5786;DHT22;2919;48.630;9.000;2023-12-28T14:20:38;8.90;99.90
5786;DHT22;2919;48.630;9.000;2023-12-28T14:23:04;8.80;99.90
5786;DHT22;2919;48.630;9.000;2023-12-28T14:25:30;8.80;99.90
5786;DHT22;2919;48.630;9.000;2023-12-28T14:27:56;8.90;99.90
5786;DHT22;2919;48.630;9.000;2023-12-28T14:30:22;8.80;99.90
5786;DHT22;2919;48.630;9.000;2023-12-28T14:32:47;8.90;99.90
5786;DHT22;2919;48.630;9.000;2023-12-28T14:35:13;8.90;99.90
5786;DHT22;2919;48.630;9.000;2023-12-28T14:37:42;8.90;99.90
5786;DHT22;2919;48.630;9.000;2023-12-28T14:40:08;8.80;99.90
5786;DHT22;2919;48.630;9.000;2023-12-28T14:42:37;8.80;99.90
5786;DHT22;2919;48.630;9.000;2023-12-28T14:45:02;8.90;99.90
5786;DHT22;2919;48.630;9.000;2023-12-28T14:47:28;8.90;99.90
5786;DHT22;2919;48.630;9.000;2023-12-28T14:49:54;9.00;99.90
5786;DHT22;2919;48.630;9.000;2023-12-28T14:52:20;8.90;99.90
5786;DHT22;2919;48.630;9.000;2023-12-28T14:54:46;8.80;99.90
5786;DHT22;2919;48.630;9.000;2023-12-28T14:57:12;8.80;99.90
5786;DHT22;2919;48.630;9.000;2023-12-28T14:59:37;8.80;99.90
5786;DHT22;2919;48.630;9.000;2023-12-28T15:02:03;8.80;99.90
5786;DHT22;2919;48.630;9.000;2023-12-28T15:04:29;8.70;99.90
5786;DHT22;2919;48.630;9.000;2023-12-28T15:06:54;8.70;99.90
5786;DHT22;2919;48.630;9.000;2023-12-28T15:09:20;8.70;99.90
5786;DHT22;2919;48.630;9.000;2023-12-28T15:11:45;8.70;99.90
5786;DHT22;2919;48.630;9.000;2023-12-28T15:14:11;8.60;99.90
5786;DHT22;2919;48.630;9.000;2023-12-28T15:16:37;8.70;99.90
5786;DHT22;2919;48.630;9.000;2023-12-28T15:19:03;8.60;99.90
5786;DHT22;2919;48.630;9.000;2023-12-28T15:21:29;8.60;99.90
5786;DHT22;2919;48.630;9.000;2023-12-28T15:23:54;8.70;99.90
5786;DHT22;2919;48.630;9.000;2023-12-28T15:26:20;8.70;99.90
5786;DHT22;2919;48.630;9.000;2023-12-28T15:28:46;8.70;99.90
5786;DHT22;2919;48.630;9.000;2023-12-28T15:31:15;8.60;99.90
5786;DHT22;2919;48.630;9.000;2023-12-28T15:33:40;8.50;99.90
5786;DHT22;2919;48.630;9.000;2023-12-28T15:36:06;8.50;99.90
5786;DHT22;2919;48.630;9.000;2023-12-28T15:38:31;8.60;99.90
5786;DHT22;2919;48.630;9.000;2023-12-28T15:40:57;8.50;99.90
5786;DHT22;2919;48.630;9.000;2023-12-28T15:43:22;8.50;99.90
5786;DHT22;2919;48.630;9.000;2023-12-28T15:45:48;8.40;99.90
5786;DHT22;2919;48.630;9.000;2023-12-28T15:48:13;8.30;99.90
5786;DHT22;2919;48.630;9.000;2023-12-28T15:50:39;8.40;99.90
5786;DHT22;2919;48.630;9.000;2023-12-28T15:53:04;8.40;99.90
5786;DHT22;2919;48.630;9.000;2023-12-28T15:55:30;8.40;99.90
5786;DHT22;2919;48.630;9.000;2023-12-28T15:57:55;8.40;99.90
5786;DHT22;2919;48.630;9.000;2023-12-28T16:00:21;8.40;99.90
5786;DHT22;2919;48.630;9.000;2023-12-28T16:02:46;8.40;99.90
5786;DHT22;2919;48.630;9.000;2023-12-28T16:05:12;8.30;99.90
5786;DHT22;2919;48.630;9.000;2023-12-28T16:07:37;8.40;99.90
5786;DHT22;2919;48.630;9.000;2023-12-28T16:10:03;8.50;99.90
5786;DHT22;2919;48.630;9.000;2023-12-28T16:12:30;8.50;99.90
5786;DHT22;2919;48.630;9.000;2023-12-28T16:14:56;8.50;99.90